createdAt,value
2023-10-11T00:01:33.658Z,16.66
2023-10-11T00:04:04.939Z,16.69
2023-10-11T00:06:34.539Z,16.67
2023-10-11T00:09:03.376Z,16.64
2023-10-11T00:11:34.573Z,16.63
2023-10-11T00:14:03.087Z,16.64
2023-10-11T00:16:32.955Z,16.63
2023-10-11T00:19:01.544Z,16.60
2023-10-11T00:21:41.907Z,16.58
2023-10-11T00:24:10.788Z,16.57
2023-10-11T00:26:42.445Z,16.58
2023-10-11T00:29:12.606Z,16.54
2023-10-11T00:31:41.077Z,16.52
2023-10-11T00:34:12.171Z,16.50
2023-10-11T00:36:44.145Z,16.47
2023-10-11T00:39:18.037Z,16.49
2023-10-11T00:41:50.601Z,16.50
2023-10-11T00:44:21.510Z,16.50
2023-10-11T00:47:01.027Z,16.50
2023-10-11T00:49:37.857Z,16.52
2023-10-11T00:52:08.051Z,16.57
2023-10-11T00:54:38.718Z,16.60
2023-10-11T00:57:08.951Z,16.60
2023-10-11T00:59:39.399Z,16.59
2023-10-11T01:02:09.753Z,16.60
2023-10-11T01:04:40.270Z,16.64
2023-10-11T01:07:09.481Z,16.64
2023-10-11T01:09:38.953Z,16.70
2023-10-11T01:12:09.107Z,16.70
2023-10-11T01:14:58.108Z,16.70
2023-10-11T01:17:27.616Z,16.69
2023-10-11T01:19:56.287Z,16.69
2023-10-11T01:22:27.668Z,16.66
2023-10-11T01:24:59.498Z,16.65
2023-10-11T01:27:31.390Z,16.62
2023-10-11T01:30:00.134Z,16.58
2023-10-11T01:32:28.652Z,16.54
2023-10-11T01:34:57.117Z,16.54
2023-10-11T01:37:27.521Z,16.50
2023-10-11T01:39:55.998Z,16.47
2023-10-11T01:42:24.409Z,16.46
2023-10-11T01:44:52.906Z,16.44
2023-10-11T01:47:21.363Z,16.41
2023-10-11T01:49:53.938Z,16.40
2023-10-11T01:52:22.613Z,16.42
2023-10-11T01:54:52.452Z,16.38
2023-10-11T01:57:21.073Z,16.37
2023-10-11T01:59:49.595Z,16.36
2023-10-11T02:02:18.093Z,16.35
2023-10-11T02:04:48.562Z,16.39
2023-10-11T02:07:16.989Z,16.40
2023-10-11T02:09:45.456Z,16.41
2023-10-11T02:12:18.893Z,16.41
2023-10-11T02:14:47.678Z,16.48
2023-10-11T02:17:19.532Z,16.49
2023-10-11T02:19:48.081Z,16.48
2023-10-11T02:22:20.035Z,16.48
2023-10-11T02:24:48.647Z,16.50
2023-10-11T02:27:19.413Z,16.55
2023-10-11T02:29:49.469Z,16.55
2023-10-11T02:32:18.106Z,16.53
2023-10-11T02:34:50.640Z,16.52
2023-10-11T02:39:52.876Z,16.58
2023-10-11T02:42:22.721Z,16.57
2023-10-11T02:44:51.171Z,16.55
2023-10-11T02:47:23.750Z,16.55
2023-10-11T02:49:54.442Z,16.55
2023-10-11T02:52:30.657Z,16.57
2023-10-11T02:55:01.063Z,16.61
2023-10-11T02:57:31.196Z,16.66
2023-10-11T02:59:59.797Z,16.70
2023-10-11T03:02:31.331Z,16.68
2023-10-11T03:05:02.422Z,16.66
2023-10-11T03:07:34.391Z,16.66
2023-10-11T03:10:04.370Z,16.67
2023-10-11T03:12:39.584Z,16.69
2023-10-11T03:15:10.217Z,16.73
2023-10-11T03:17:43.125Z,16.74
2023-10-11T03:20:31.785Z,16.73
2023-10-11T03:23:01.356Z,16.69
2023-10-11T03:25:32.045Z,16.79
2023-10-11T03:28:03.203Z,16.76
2023-10-11T03:30:36.405Z,16.77
2023-10-11T03:33:08.105Z,16.82
2023-10-11T03:35:39.385Z,16.82
2023-10-11T03:38:18.228Z,16.82
2023-10-11T03:41:15.957Z,16.86
2023-10-11T03:43:46.870Z,16.84
2023-10-11T03:46:16.548Z,16.83
2023-10-11T03:48:52.758Z,16.84
2023-10-11T03:51:21.846Z,16.83
2023-10-11T03:53:53.274Z,16.84
2023-10-11T03:56:21.777Z,16.84
2023-10-11T03:58:52.337Z,16.81
2023-10-11T04:01:28.695Z,16.80
2023-10-11T04:03:57.914Z,16.83
2023-10-11T04:06:26.471Z,16.76
2023-10-11T04:09:02.073Z,16.73
2023-10-11T04:11:39.052Z,16.71
2023-10-11T04:14:18.450Z,16.70
2023-10-11T04:16:47.613Z,16.74
2023-10-11T04:19:16.495Z,16.80
2023-10-11T04:21:56.591Z,16.77
2023-10-11T04:24:25.419Z,16.80
2023-10-11T04:26:59.560Z,16.86
2023-10-11T04:29:33.069Z,16.83
2023-10-11T04:32:15.982Z,16.84
2023-10-11T04:34:50.022Z,16.82
2023-10-11T04:37:29.035Z,16.84
2023-10-11T04:40:18.637Z,16.83
2023-10-11T04:43:05.734Z,16.84
2023-10-11T04:45:55.713Z,16.82
2023-10-11T04:48:34.891Z,16.82
2023-10-11T04:51:22.783Z,16.86
2023-10-11T04:53:58.026Z,16.85
2023-10-11T04:56:51.012Z,16.86
2023-10-11T04:59:27.087Z,16.91
2023-10-11T05:02:09.767Z,16.92
2023-10-11T05:04:45.568Z,17.00
2023-10-11T05:07:15.417Z,17.05
2023-10-11T05:09:53.852Z,17.01
2023-10-11T05:12:23.244Z,16.99
2023-10-11T05:15:05.244Z,17.03
2023-10-11T05:17:41.170Z,17.04
2023-10-11T05:20:24.753Z,17.07
2023-10-11T05:23:03.627Z,17.06
2023-10-11T05:25:54.756Z,17.07
2023-10-11T05:28:29.251Z,17.11
2023-10-11T05:31:20.925Z,17.14
2023-10-11T05:34:13.614Z,17.19
2023-10-11T05:36:49.840Z,17.17
2023-10-11T05:39:36.015Z,17.18
2023-10-11T05:42:22.181Z,17.23
2023-10-11T05:45:08.408Z,17.21
2023-10-11T05:47:54.581Z,17.23
2023-10-11T05:50:43.303Z,17.20
2023-10-11T05:53:15.248Z,17.18
2023-10-11T05:55:43.882Z,17.18
2023-10-11T05:58:14.328Z,17.13
2023-10-11T06:00:43.089Z,17.14
2023-10-11T06:03:12.756Z,17.21
2023-10-11T06:05:42.937Z,17.17
2023-10-11T06:08:16.929Z,17.24
2023-10-11T06:10:45.690Z,17.21
2023-10-11T06:13:15.617Z,17.19
2023-10-11T06:16:00.046Z,17.17
2023-10-11T06:18:40.838Z,17.13
2023-10-11T06:21:25.580Z,17.13
2023-10-11T06:23:55.068Z,17.10
2023-10-11T06:26:49.853Z,17.08
2023-10-11T06:29:19.351Z,17.06
2023-10-11T06:31:47.045Z,17.08
2023-10-11T06:34:23.659Z,17.10
2023-10-11T06:36:55.049Z,17.11
2023-10-11T06:39:56.486Z,17.09
2023-10-11T06:42:25.376Z,17.10
2023-10-11T06:44:58.850Z,17.14
2023-10-11T06:47:28.851Z,17.14
2023-10-11T06:49:58.150Z,17.14
2023-10-11T06:52:32.228Z,17.16
2023-10-11T06:55:15.506Z,17.13
2023-10-11T06:57:47.095Z,17.14
2023-10-11T07:00:24.605Z,17.15
2023-10-11T07:02:55.188Z,17.14
2023-10-11T07:05:27.013Z,17.13
2023-10-11T07:07:59.711Z,17.15
2023-10-11T07:10:32.809Z,17.18
2023-10-11T07:13:08.989Z,17.19
2023-10-11T07:15:42.528Z,17.17
2023-10-11T07:18:12.772Z,17.14
2023-10-11T07:21:06.994Z,17.12
2023-10-11T07:23:47.418Z,17.11
2023-10-11T07:26:45.322Z,17.12
2023-10-11T07:29:14.180Z,17.10
2023-10-11T07:31:50.898Z,17.14
2023-10-11T07:34:22.227Z,17.11
2023-10-11T07:36:51.369Z,17.10
2023-10-11T07:39:27.199Z,17.08
2023-10-11T07:42:05.063Z,17.06
2023-10-11T07:44:37.813Z,17.11
2023-10-11T07:47:08.490Z,17.13
2023-10-11T07:49:43.198Z,17.13
2023-10-11T07:52:15.305Z,17.12
2023-10-11T07:54:45.093Z,17.13
2023-10-11T07:57:14.549Z,17.17
2023-10-11T07:59:44.064Z,17.31
2023-10-11T08:02:27.586Z,17.43
2023-10-11T08:05:00.419Z,17.54
2023-10-11T08:07:28.852Z,17.61
2023-10-11T08:09:58.662Z,17.67
2023-10-11T08:12:28.305Z,17.79
2023-10-11T08:14:58.676Z,17.82
2023-10-11T08:17:31.496Z,17.82
2023-10-11T08:20:01.178Z,17.82
2023-10-11T08:22:30.118Z,17.87
2023-10-11T08:25:01.735Z,17.93
2023-10-11T08:27:30.979Z,18.01
2023-10-11T08:30:10.483Z,18.04
2023-10-11T08:32:43.991Z,18.16
2023-10-11T08:35:17.251Z,18.22
2023-10-11T08:37:47.112Z,18.34
2023-10-11T08:40:24.150Z,18.32
2023-10-11T08:42:54.240Z,18.38
2023-10-11T08:45:30.342Z,18.43
2023-10-11T08:47:59.842Z,18.52
2023-10-11T08:50:35.640Z,18.62
2023-10-11T08:53:09.429Z,18.63
2023-10-11T08:55:41.657Z,18.70
2023-10-11T08:58:13.994Z,18.72
2023-10-11T09:00:48.522Z,18.76
2023-10-11T09:03:19.628Z,18.72
2023-10-11T09:05:49.156Z,18.77
2023-10-11T09:08:28.002Z,18.87
2023-10-11T09:11:12.552Z,19.00
2023-10-11T09:13:42.155Z,19.04
2023-10-11T09:16:14.062Z,19.15
2023-10-11T09:18:47.374Z,19.14
2023-10-11T09:21:18.946Z,19.13
2023-10-11T09:23:52.692Z,19.15
2023-10-11T09:26:41.638Z,19.22
2023-10-11T09:29:17.665Z,19.26
2023-10-11T09:31:59.712Z,19.30
2023-10-11T09:34:31.984Z,19.32
2023-10-11T09:37:01.207Z,19.39
2023-10-11T09:39:30.764Z,19.38
2023-10-11T09:42:05.206Z,19.43
2023-10-11T09:44:38.833Z,19.47
2023-10-11T09:47:09.272Z,19.51
2023-10-11T09:49:43.042Z,19.50
2023-10-11T09:52:13.051Z,19.48
2023-10-11T09:54:42.758Z,19.53
2023-10-11T09:57:24.725Z,19.52
2023-10-11T10:00:09.892Z,19.54
2023-10-11T10:02:40.795Z,19.54
2023-10-11T10:05:10.038Z,19.54
2023-10-11T10:07:45.543Z,19.53
2023-10-11T10:10:16.665Z,19.56
2023-10-11T10:12:59.305Z,19.59
2023-10-11T10:15:33.943Z,19.69
2023-10-11T10:18:22.602Z,19.78
2023-10-11T10:21:03.781Z,19.86
2023-10-11T10:23:34.073Z,19.94
2023-10-11T10:26:33.236Z,20.04
2023-10-11T10:29:08.059Z,20.08
2023-10-11T10:31:36.785Z,20.14
2023-10-11T10:34:30.856Z,20.24
2023-10-11T10:37:03.504Z,20.27
2023-10-11T10:39:49.294Z,20.39
2023-10-11T10:42:19.900Z,20.43
2023-10-11T10:44:55.033Z,20.48
2023-10-11T10:47:33.386Z,20.56
2023-10-11T10:50:10.435Z,20.59
2023-10-11T10:52:40.639Z,20.66
2023-10-11T10:55:10.391Z,20.72
2023-10-11T10:57:39.286Z,20.79
2023-10-11T11:00:22.353Z,20.81
2023-10-11T11:02:52.054Z,20.95
2023-10-11T11:05:32.078Z,21.03
2023-10-11T11:08:17.062Z,21.08
2023-10-11T11:10:56.108Z,21.16
2023-10-11T11:13:27.141Z,21.28
2023-10-11T11:15:56.798Z,21.29
2023-10-11T11:18:33.261Z,21.27
2023-10-11T11:21:18.857Z,21.25
2023-10-11T11:23:50.332Z,21.21
2023-10-11T11:28:52.428Z,21.18
2023-10-11T11:31:32.075Z,21.19
2023-10-11T11:34:17.287Z,21.20
2023-10-11T11:37:14.121Z,21.28
2023-10-11T11:39:52.207Z,21.31
2023-10-11T11:42:20.798Z,21.40
2023-10-11T11:44:50.403Z,21.56
2023-10-11T11:47:26.069Z,21.64
2023-10-11T11:50:00.063Z,21.78
2023-10-11T11:52:29.620Z,21.79
2023-10-11T11:54:58.187Z,21.85
2023-10-11T11:57:30.756Z,21.90
2023-10-11T12:00:02.630Z,21.95
2023-10-11T12:02:31.621Z,22.00
2023-10-11T12:05:00.083Z,22.08
2023-10-11T12:07:28.181Z,22.14
2023-10-11T12:10:03.667Z,22.18
2023-10-11T12:12:33.442Z,22.20
2023-10-11T12:15:03.290Z,22.29
2023-10-11T12:17:33.364Z,22.29
2023-10-11T12:20:02.023Z,22.34
2023-10-11T12:22:30.448Z,22.39
2023-10-11T12:25:01.133Z,22.36
2023-10-11T12:27:29.772Z,22.31
2023-10-11T12:30:08.816Z,22.42
2023-10-11T12:32:39.599Z,22.48
2023-10-11T12:35:09.294Z,22.61
2023-10-11T12:37:38.419Z,22.70
2023-10-11T12:40:13.830Z,22.69
2023-10-11T12:42:46.243Z,22.59
2023-10-11T12:45:17.929Z,22.71
2023-10-11T12:47:48.607Z,22.73
2023-10-11T12:50:18.780Z,22.69
2023-10-11T12:52:47.514Z,22.68
2023-10-11T12:55:16.228Z,22.63
2023-10-11T12:57:44.713Z,22.57
2023-10-11T13:00:32.458Z,22.59
2023-10-11T13:03:17.272Z,22.50
2023-10-11T13:05:46.839Z,22.51
2023-10-11T13:08:15.831Z,22.55
2023-10-11T13:10:46.860Z,22.59
2023-10-11T13:13:16.647Z,22.57
2023-10-11T13:15:56.380Z,22.54
2023-10-11T13:18:29.860Z,22.50
2023-10-11T13:21:00.448Z,22.48
2023-10-11T13:23:33.737Z,22.51
2023-10-11T13:26:08.154Z,22.45
2023-10-11T13:28:39.675Z,22.51
2023-10-11T13:31:10.837Z,22.43
2023-10-11T13:33:41.438Z,22.44
2023-10-11T13:36:10.295Z,22.45
2023-10-11T13:38:42.510Z,22.56
2023-10-11T13:41:13.304Z,22.55
2023-10-11T13:43:42.607Z,22.64
2023-10-11T13:46:12.676Z,22.59
2023-10-11T13:48:44.317Z,22.58
2023-10-11T13:51:18.608Z,22.63
2023-10-11T13:53:48.704Z,22.58
2023-10-11T13:56:22.317Z,22.57
2023-10-11T13:58:53.630Z,22.68
2023-10-11T14:02:00.301Z,22.71
2023-10-11T14:04:48.810Z,22.65
2023-10-11T14:07:24.429Z,22.69
2023-10-11T14:09:55.258Z,22.71
2023-10-11T14:12:29.131Z,22.69
2023-10-11T14:14:58.014Z,22.65
2023-10-11T14:17:27.210Z,22.71
2023-10-11T14:19:58.151Z,22.61
2023-10-11T14:22:28.337Z,22.56
2023-10-11T14:24:58.559Z,22.38
2023-10-11T14:27:27.044Z,22.38
2023-10-11T14:29:55.502Z,22.26
2023-10-11T14:32:24.055Z,22.42
2023-10-11T14:34:52.820Z,22.45
2023-10-11T14:37:22.743Z,22.27
2023-10-11T14:39:52.144Z,22.33
2023-10-11T14:42:20.586Z,22.22
2023-10-11T14:44:49.289Z,22.33
2023-10-11T14:47:17.795Z,22.31
2023-10-11T14:49:46.611Z,22.22
2023-10-11T14:52:15.117Z,22.06
2023-10-11T14:54:49.482Z,22.02
2023-10-11T14:57:18.017Z,21.90
2023-10-11T14:59:47.173Z,21.72
2023-10-11T15:02:18.102Z,21.77
2023-10-11T15:04:46.826Z,21.75
2023-10-11T15:07:19.384Z,21.65
2023-10-11T15:09:49.497Z,21.57
2023-10-11T15:12:18.212Z,21.49
2023-10-11T15:14:48.725Z,21.51
2023-10-11T15:17:19.942Z,21.51
2023-10-11T15:19:48.494Z,21.51
2023-10-11T15:22:19.423Z,21.52
2023-10-11T15:24:49.485Z,21.45
2023-10-11T15:27:18.155Z,21.44
2023-10-11T15:29:48.088Z,21.38
2023-10-11T15:32:16.741Z,21.35
2023-10-11T15:34:45.746Z,21.35
2023-10-11T15:37:14.217Z,21.24
2023-10-11T15:39:42.702Z,21.15
2023-10-11T15:42:12.596Z,21.06
2023-10-11T15:44:41.057Z,21.03
2023-10-11T15:47:09.673Z,21.12
2023-10-11T15:49:38.126Z,21.10
2023-10-11T15:52:07.059Z,21.12
2023-10-11T15:54:35.969Z,21.07
2023-10-11T15:57:05.220Z,21.09
2023-10-11T15:59:35.135Z,21.03
2023-10-11T16:02:06.890Z,20.92
2023-10-11T16:04:35.826Z,20.88
2023-10-11T16:07:06.545Z,20.91
2023-10-11T16:09:36.299Z,20.90
2023-10-11T16:12:05.715Z,20.91
2023-10-11T16:14:35.642Z,20.83
2023-10-11T16:17:04.112Z,20.79
2023-10-11T16:19:32.555Z,20.75
2023-10-11T16:22:01.016Z,20.75
2023-10-11T16:24:29.907Z,20.69
2023-10-11T16:26:59.129Z,20.60
2023-10-11T16:29:27.745Z,20.61
2023-10-11T16:31:57.752Z,20.61
2023-10-11T16:34:26.389Z,20.54
2023-10-11T16:36:54.823Z,20.48
2023-10-11T16:39:35.557Z,20.43
2023-10-11T16:42:06.740Z,20.41
2023-10-11T16:44:36.374Z,20.38
2023-10-11T16:47:10.043Z,20.40
2023-10-11T16:49:38.900Z,20.37
2023-10-11T16:52:10.809Z,20.31
2023-10-11T16:54:39.408Z,20.17
2023-10-11T16:57:08.307Z,20.24
2023-10-11T16:59:39.991Z,20.23
2023-10-11T17:02:11.018Z,20.17
2023-10-11T17:04:42.453Z,20.09
2023-10-11T17:07:11.293Z,20.10
2023-10-11T17:09:39.765Z,20.04
2023-10-11T17:12:11.240Z,20.06
2023-10-11T17:14:40.663Z,19.96
2023-10-11T17:17:10.543Z,19.92
2023-10-11T17:19:39.373Z,19.91
2023-10-11T17:22:07.785Z,19.88
2023-10-11T17:24:36.402Z,19.83
2023-10-11T17:27:05.284Z,19.81
2023-10-11T17:29:34.025Z,19.72
2023-10-11T17:32:05.013Z,19.71
2023-10-11T17:34:35.148Z,19.62
2023-10-11T17:37:03.658Z,19.54
2023-10-11T17:39:32.128Z,19.53
2023-10-11T17:42:01.602Z,19.53
2023-10-11T17:44:30.119Z,19.48
2023-10-11T17:46:59.681Z,19.44
2023-10-11T17:49:28.251Z,19.40
2023-10-11T17:51:58.029Z,19.33
2023-10-11T17:54:26.509Z,19.21
2023-10-11T17:56:54.999Z,19.15
2023-10-11T17:59:23.482Z,19.20
2023-10-11T18:01:52.731Z,19.17
2023-10-11T18:04:21.503Z,19.21
2023-10-11T18:06:50.252Z,19.21
2023-10-11T18:09:20.175Z,19.14
2023-10-11T18:11:48.633Z,19.19
2023-10-11T18:14:17.205Z,19.16
2023-10-11T18:16:45.896Z,19.10
2023-10-11T18:19:17.124Z,19.04
2023-10-11T18:21:45.708Z,18.98
2023-10-11T18:24:15.881Z,18.89
2023-10-11T18:26:48.657Z,18.73
2023-10-11T18:29:18.332Z,18.78
2023-10-11T18:31:49.085Z,18.69
2023-10-11T18:34:17.931Z,18.69
2023-10-11T18:36:47.107Z,18.78
2023-10-11T18:39:19.511Z,18.78
2023-10-11T18:41:49.517Z,18.74
2023-10-11T18:44:18.274Z,18.74
2023-10-11T18:46:47.673Z,18.73
2023-10-11T18:49:16.548Z,18.76
2023-10-11T18:51:45.114Z,18.72
2023-10-11T18:54:13.647Z,18.62
2023-10-11T18:56:42.146Z,18.62
2023-10-11T18:59:12.612Z,18.60
2023-10-11T19:01:41.150Z,18.58
2023-10-11T19:04:09.766Z,18.55
2023-10-11T19:06:38.440Z,18.45
2023-10-11T19:09:07.819Z,18.34
2023-10-11T19:11:37.562Z,18.44
2023-10-11T19:14:06.206Z,18.39
2023-10-11T19:16:36.140Z,18.42
2023-10-11T19:19:04.704Z,18.48
2023-10-11T19:21:33.222Z,18.52
2023-10-11T19:24:04.897Z,18.52
2023-10-11T19:26:33.404Z,18.49
2023-10-11T19:29:01.865Z,18.51
2023-10-11T19:31:30.441Z,18.48
2023-10-11T19:34:01.291Z,18.35
2023-10-11T19:36:29.750Z,18.18
2023-10-11T19:38:58.287Z,18.19
2023-10-11T19:41:27.337Z,18.09
2023-10-11T19:43:55.801Z,18.00
2023-10-11T19:46:25.441Z,17.94
2023-10-11T19:48:54.745Z,17.93
2023-10-11T19:51:25.917Z,17.91
2023-10-11T19:53:57.245Z,17.87
2023-10-11T19:56:26.047Z,17.90
2023-10-11T19:58:54.685Z,17.94
2023-10-11T20:01:24.610Z,18.03
2023-10-11T20:03:57.800Z,18.09
2023-10-11T20:06:27.905Z,18.06
2023-10-11T20:08:56.454Z,18.00
2023-10-11T20:11:24.870Z,17.83
2023-10-11T20:13:53.360Z,17.93
2023-10-11T20:16:21.822Z,17.92
2023-10-11T20:18:51.190Z,17.93
2023-10-11T20:21:20.665Z,17.96
2023-10-11T20:23:55.278Z,17.86
2023-10-11T20:26:25.761Z,17.86
2023-10-11T20:28:57.814Z,17.78
2023-10-11T20:31:27.154Z,17.72
2023-10-11T20:33:58.143Z,17.74
2023-10-11T20:36:26.980Z,17.77
2023-10-11T20:38:57.449Z,17.70
2023-10-11T20:41:25.931Z,17.71
2023-10-11T20:43:54.526Z,17.70
2023-10-11T20:46:23.018Z,17.68
2023-10-11T20:48:51.536Z,17.67
2023-10-11T20:51:20.088Z,17.71
2023-10-11T20:53:48.601Z,17.72
2023-10-11T20:56:18.681Z,17.69
2023-10-11T20:58:56.504Z,17.65
2023-10-11T21:01:27.469Z,17.68
2023-10-11T21:03:57.529Z,17.64
2023-10-11T21:06:26.297Z,17.63
2023-10-11T21:08:54.872Z,17.65
2023-10-11T21:11:24.678Z,17.68
2023-10-11T21:13:53.783Z,17.67
2023-10-11T21:16:23.855Z,17.63
2023-10-11T21:18:52.476Z,17.65
2023-10-11T21:21:24.355Z,17.64
2023-10-11T21:23:55.374Z,17.67
2023-10-11T21:26:25.430Z,17.81
2023-10-11T21:28:55.229Z,17.83
2023-10-11T21:31:24.226Z,17.89
2023-10-11T21:33:53.308Z,18.00
2023-10-11T21:36:22.087Z,18.05
2023-10-11T21:38:50.620Z,18.15
2023-10-11T21:41:22.226Z,18.18
2023-10-11T21:43:54.380Z,18.27
2023-10-11T21:46:23.049Z,18.30
2023-10-11T21:48:51.638Z,18.34
2023-10-11T21:51:20.308Z,18.37
2023-10-11T21:53:48.822Z,18.49
2023-10-11T21:56:17.325Z,18.48
2023-10-11T21:58:47.839Z,18.46
2023-10-11T22:01:25.354Z,18.60
2023-10-11T22:03:56.993Z,18.65
2023-10-11T22:06:25.740Z,18.65
2023-10-11T22:08:54.226Z,18.68
2023-10-11T22:11:26.310Z,18.59
2023-10-11T22:13:57.421Z,18.58
2023-10-11T22:16:27.514Z,18.61
2023-10-11T22:18:59.741Z,18.64
2023-10-11T22:21:28.249Z,18.65
2023-10-11T22:23:56.728Z,18.65
2023-10-11T22:26:27.389Z,18.73
2023-10-11T22:28:55.911Z,18.76
2023-10-11T22:31:25.897Z,18.81
2023-10-11T22:33:55.700Z,18.78
2023-10-11T22:36:29.039Z,18.78
2023-10-11T22:38:58.759Z,18.73
2023-10-11T22:41:27.211Z,18.76
2023-10-11T22:43:56.533Z,18.77
2023-10-11T22:46:26.821Z,18.76
2023-10-11T22:48:55.558Z,18.80
2023-10-11T22:51:28.414Z,18.79
2023-10-11T22:54:01.583Z,18.78
2023-10-11T22:56:32.227Z,18.77
2023-10-11T22:59:04.899Z,18.73
2023-10-11T23:01:38.137Z,18.72
2023-10-11T23:04:08.545Z,18.76
2023-10-11T23:06:37.763Z,18.79
2023-10-11T23:09:06.303Z,18.76
2023-10-11T23:11:37.292Z,18.69
2023-10-11T23:14:05.828Z,18.65
2023-10-11T23:16:36.642Z,18.63
2023-10-11T23:19:19.294Z,18.57
2023-10-11T23:21:48.079Z,18.54
2023-10-11T23:24:20.321Z,18.47
2023-10-11T23:26:53.995Z,18.45
2023-10-11T23:29:23.257Z,18.42
2023-10-11T23:31:54.713Z,18.43
2023-10-11T23:34:26.850Z,18.45
2023-10-11T23:36:57.532Z,18.47
2023-10-11T23:39:34.469Z,18.46
2023-10-11T23:42:15.309Z,18.43
2023-10-11T23:44:47.168Z,18.40
2023-10-11T23:47:28.709Z,18.37
2023-10-11T23:49:57.476Z,18.37
2023-10-11T23:52:29.201Z,18.36
2023-10-11T23:55:06.963Z,18.35
2023-10-11T23:57:37.685Z,18.40
